createdAt,value
2019-03-17T00:00:29.885Z,7.70
2019-03-17T00:03:03.546Z,7.69
2019-03-17T00:05:37.796Z,7.71
2019-03-17T00:08:11.270Z,7.74
2019-03-17T00:10:44.899Z,7.76
2019-03-17T00:13:18.659Z,7.80
2019-03-17T00:15:59.825Z,7.84
2019-03-17T00:18:38.492Z,7.85
2019-03-17T00:21:14.209Z,7.86
2019-03-17T00:23:47.680Z,7.84
2019-03-17T00:26:21.500Z,7.85
2019-03-17T00:28:56.042Z,7.87
2019-03-17T00:31:29.542Z,7.89
2019-03-17T00:34:03.253Z,7.90
2019-03-17T00:36:37.127Z,7.92
2019-03-17T00:39:10.668Z,7.93
2019-03-17T00:41:44.265Z,7.95
2019-03-17T00:44:17.816Z,7.98
2019-03-17T00:46:51.331Z,7.96
2019-03-17T00:49:26.173Z,7.96
2019-03-17T00:51:59.672Z,7.97
2019-03-17T00:54:33.229Z,7.97
2019-03-17T00:57:07.289Z,7.98
2019-03-17T00:59:40.920Z,7.99
2019-03-17T01:02:14.310Z,7.98
2019-03-17T01:04:56.114Z,7.95
2019-03-17T01:07:23.226Z,7.98
2019-03-17T01:09:57.605Z,7.96
2019-03-17T01:12:31.174Z,7.98
2019-03-17T01:15:04.705Z,7.98
2019-03-17T01:17:38.229Z,7.95
2019-03-17T01:20:11.706Z,7.95
2019-03-17T01:22:45.071Z,7.94
2019-03-17T01:25:18.415Z,7.95
2019-03-17T01:27:51.811Z,7.95
2019-03-17T01:30:25.222Z,7.95
2019-03-17T01:32:59.794Z,7.97
2019-03-17T01:35:33.130Z,7.97
2019-03-17T01:38:06.635Z,7.99
2019-03-17T01:40:40.170Z,8.00
2019-03-17T01:43:13.537Z,8.01
2019-03-17T01:45:48.249Z,8.03
2019-03-17T01:48:21.592Z,8.05
2019-03-17T01:50:55.131Z,8.06
2019-03-17T01:53:28.540Z,8.07
2019-03-17T01:56:01.936Z,8.08
2019-03-17T01:58:35.303Z,8.08
2019-03-17T02:01:11.758Z,8.11
2019-03-17T02:03:44.845Z,8.10
2019-03-17T02:06:19.247Z,8.12
2019-03-17T02:08:53.328Z,8.14
2019-03-17T02:11:26.902Z,8.11
2019-03-17T02:14:00.728Z,8.08
2019-03-17T02:16:34.246Z,8.09
2019-03-17T02:19:07.748Z,8.08
2019-03-17T02:21:41.350Z,8.09
2019-03-17T02:24:14.775Z,8.10
2019-03-17T02:26:48.283Z,8.11
2019-03-17T02:29:21.647Z,8.09
2019-03-17T02:31:55.052Z,8.09
2019-03-17T02:34:28.458Z,8.07
2019-03-17T02:37:02.028Z,8.06
2019-03-17T02:39:35.741Z,8.04
2019-03-17T02:42:09.290Z,8.04
2019-03-17T02:44:42.714Z,8.04
2019-03-17T02:47:16.431Z,8.03
2019-03-17T02:49:49.770Z,8.02
2019-03-17T02:52:23.489Z,8.01
2019-03-17T02:54:57.282Z,8.02
2019-03-17T02:57:30.651Z,8.02
2019-03-17T03:00:04.093Z,7.99
2019-03-17T03:02:38.561Z,8.01
2019-03-17T03:05:12.106Z,8.03
2019-03-17T03:07:45.515Z,8.03
2019-03-17T03:10:19.353Z,8.04
2019-03-17T03:12:52.805Z,8.05
2019-03-17T03:15:26.301Z,8.07
2019-03-17T03:17:59.879Z,8.08
2019-03-17T03:20:33.450Z,8.06
2019-03-17T03:23:08.413Z,8.07
2019-03-17T03:25:42.825Z,8.07
2019-03-17T03:28:16.305Z,8.06
2019-03-17T03:30:49.804Z,8.06
2019-03-17T03:33:23.368Z,8.06
2019-03-17T03:36:09.765Z,8.06
2019-03-17T03:38:31.997Z,8.05
2019-03-17T03:41:05.362Z,8.08
2019-03-17T03:43:39.371Z,8.05
2019-03-17T03:46:12.877Z,8.05
2019-03-17T03:48:46.343Z,8.08
2019-03-17T03:51:20.473Z,8.06
2019-03-17T03:53:55.110Z,8.08
2019-03-17T03:56:28.612Z,8.08
2019-03-17T03:59:02.067Z,8.08
2019-03-17T04:01:35.815Z,8.04
2019-03-17T04:04:09.225Z,8.02
2019-03-17T04:06:42.689Z,8.02
2019-03-17T04:09:16.072Z,8.00
2019-03-17T04:11:49.564Z,8.01
2019-03-17T04:14:23.051Z,7.98
2019-03-17T04:16:56.525Z,7.95
2019-03-17T04:19:29.918Z,7.97
2019-03-17T04:22:03.710Z,7.96
2019-03-17T04:24:37.243Z,7.93
2019-03-17T04:27:10.644Z,7.95
2019-03-17T04:29:44.479Z,7.93
2019-03-17T04:32:18.260Z,7.90
2019-03-17T04:34:51.734Z,7.89
2019-03-17T04:37:25.253Z,7.88
2019-03-17T04:39:58.752Z,7.86
2019-03-17T04:42:32.642Z,7.85
2019-03-17T04:45:06.663Z,7.86
2019-03-17T04:47:40.159Z,7.81
2019-03-17T04:50:13.592Z,7.82
2019-03-17T04:52:46.978Z,7.83
2019-03-17T04:55:20.406Z,7.83
2019-03-17T04:57:54.160Z,7.83
2019-03-17T05:00:28.688Z,7.84
2019-03-17T05:03:02.321Z,7.82
2019-03-17T05:05:35.829Z,7.84
2019-03-17T05:08:09.277Z,7.84
2019-03-17T05:10:42.701Z,7.85
2019-03-17T05:13:16.128Z,7.85
2019-03-17T05:15:49.563Z,7.86
2019-03-17T05:18:23.000Z,7.83
2019-03-17T05:20:56.470Z,7.86
2019-03-17T05:23:30.340Z,7.83
2019-03-17T05:26:03.894Z,7.85
2019-03-17T05:28:37.747Z,7.85
2019-03-17T05:31:11.278Z,7.91
2019-03-17T05:33:44.820Z,7.89
2019-03-17T05:36:18.246Z,7.87
2019-03-17T05:38:51.837Z,7.86
2019-03-17T05:41:25.689Z,7.86
2019-03-17T05:43:59.133Z,7.85
2019-03-17T05:46:32.678Z,7.84
2019-03-17T05:49:06.137Z,7.85
2019-03-17T05:51:41.029Z,7.83
2019-03-17T05:54:15.433Z,7.84
2019-03-17T05:56:48.925Z,7.84
2019-03-17T05:59:22.374Z,7.88
2019-03-17T06:02:22.811Z,7.91
2019-03-17T06:04:56.365Z,7.95
2019-03-17T06:07:29.947Z,7.98
2019-03-17T06:10:03.846Z,8.03
2019-03-17T06:12:37.820Z,8.06
2019-03-17T06:15:12.486Z,8.15
2019-03-17T06:17:45.980Z,8.15
2019-03-17T06:20:19.412Z,8.22
2019-03-17T06:22:52.888Z,8.27
2019-03-17T06:25:26.724Z,8.32
2019-03-17T06:28:00.257Z,8.38
2019-03-17T06:30:34.596Z,8.48
2019-03-17T06:33:08.659Z,8.52
2019-03-17T06:35:42.701Z,8.60
2019-03-17T06:38:16.589Z,8.77
2019-03-17T06:40:51.067Z,8.86
2019-03-17T06:43:25.415Z,8.97
2019-03-17T06:45:59.979Z,9.01
2019-03-17T06:52:27.911Z,9.26
2019-03-17T07:21:22.524Z,10.67
2019-03-17T07:23:57.791Z,10.99
2019-03-17T07:26:32.313Z,11.16
2019-03-17T07:29:07.861Z,11.55
2019-03-17T07:31:41.579Z,11.80
2019-03-17T07:34:15.055Z,12.12
2019-03-17T07:37:15.771Z,12.11
2019-03-17T07:40:23.712Z,12.11
2019-03-17T07:43:35.815Z,12.03
2019-03-17T07:46:41.842Z,12.10
2019-03-17T08:06:38.323Z,12.51
2019-03-17T08:09:44.509Z,12.76
2019-03-17T08:12:25.935Z,12.94
2019-03-17T08:15:16.558Z,13.29
2019-03-17T08:17:53.041Z,13.53
2019-03-17T08:20:27.133Z,13.64
2019-03-17T08:23:00.672Z,13.79
2019-03-17T08:25:35.397Z,14.03
2019-03-17T08:28:16.009Z,14.19
2019-03-17T08:30:53.441Z,14.31
2019-03-17T08:33:29.352Z,14.56
2019-03-17T08:36:03.697Z,14.72
2019-03-17T08:38:37.364Z,14.72
2019-03-17T08:49:18.989Z,14.81
2019-03-17T08:51:52.306Z,14.99
2019-03-17T08:54:31.119Z,15.18
2019-03-17T08:57:04.722Z,15.18
2019-03-17T08:59:38.079Z,15.06
2019-03-17T09:02:14.020Z,14.97
2019-03-17T09:04:58.528Z,15.08
2019-03-17T09:07:45.427Z,15.24
2019-03-17T09:10:22.658Z,15.38
2019-03-17T09:12:56.013Z,15.44
2019-03-17T09:15:38.321Z,15.60
2019-03-17T09:18:13.516Z,15.61
2019-03-17T09:20:47.180Z,15.55
2019-03-17T09:23:20.350Z,15.64
2019-03-17T09:25:53.524Z,15.75
2019-03-17T09:28:32.282Z,15.68
2019-03-17T09:31:07.609Z,15.74
2019-03-17T09:33:41.299Z,15.78
2019-03-17T09:36:14.651Z,15.98
2019-03-17T09:38:47.912Z,15.98
2019-03-17T09:41:30.948Z,16.10
2019-03-17T09:44:09.798Z,16.09
2019-03-17T09:46:44.188Z,16.04
2019-03-17T09:49:20.849Z,16.27
2019-03-17T09:51:57.757Z,16.38
2019-03-17T09:54:33.761Z,16.47
2019-03-17T09:57:07.044Z,16.58
2019-03-17T09:59:41.822Z,16.55
2019-03-17T10:02:15.310Z,16.63
2019-03-17T10:04:48.512Z,16.44
2019-03-17T10:07:22.727Z,16.49
2019-03-17T10:09:56.314Z,16.59
2019-03-17T10:12:29.665Z,16.65
2019-03-17T10:15:02.944Z,16.73
2019-03-17T10:17:36.474Z,16.74
2019-03-17T10:20:13.833Z,16.46
2019-03-17T10:22:46.972Z,16.37
2019-03-17T10:25:20.105Z,16.33
2019-03-17T10:27:53.229Z,16.44
2019-03-17T10:30:26.589Z,16.49
2019-03-17T10:33:01.446Z,16.76
2019-03-17T10:35:34.688Z,16.93
2019-03-17T10:38:07.893Z,17.05
2019-03-17T10:40:41.053Z,17.09
2019-03-17T10:43:15.230Z,17.21
2019-03-17T10:45:48.452Z,17.35
2019-03-17T10:48:21.689Z,17.27
2019-03-17T10:50:54.941Z,17.19
2019-03-17T10:53:28.185Z,17.24
2019-03-17T10:56:01.340Z,17.30
2019-03-17T10:58:34.426Z,17.37
2019-03-17T11:01:07.674Z,17.30
2019-03-17T11:03:41.919Z,17.40
2019-03-17T11:06:15.352Z,17.46
2019-03-17T11:08:49.023Z,17.45
2019-03-17T11:11:26.651Z,17.68
2019-03-17T11:17:21.696Z,17.68
2019-03-17T11:19:55.591Z,17.73
2019-03-17T11:22:31.615Z,17.85
2019-03-17T11:25:05.857Z,17.87
2019-03-17T11:27:41.819Z,17.88
2019-03-17T11:30:15.085Z,17.87
2019-03-17T11:32:48.208Z,17.96
2019-03-17T11:35:22.314Z,17.99
2019-03-17T11:37:55.335Z,18.13
2019-03-17T11:40:28.258Z,18.24
2019-03-17T11:43:01.770Z,18.27
2019-03-17T11:45:35.680Z,18.26
2019-03-17T11:48:08.691Z,18.38
2019-03-17T11:50:41.755Z,18.51
2019-03-17T11:53:16.275Z,18.66
2019-03-17T11:55:49.790Z,18.72
2019-03-17T11:58:26.575Z,18.85
2019-03-17T12:01:02.070Z,18.90
2019-03-17T12:03:35.273Z,18.87
2019-03-17T12:06:08.869Z,18.87
2019-03-17T12:08:43.015Z,18.73
2019-03-17T12:11:16.344Z,18.50
2019-03-17T12:13:49.527Z,18.42
2019-03-17T12:16:23.548Z,18.48
2019-03-17T12:18:57.630Z,18.48
2019-03-17T12:21:30.764Z,18.54
2019-03-17T12:24:04.035Z,18.62
2019-03-17T12:26:38.326Z,18.60
2019-03-17T12:29:11.824Z,18.62
2019-03-17T12:31:45.010Z,18.69
2019-03-17T12:34:27.797Z,18.76
2019-03-17T12:36:52.989Z,18.87
2019-03-17T12:39:26.081Z,18.69
2019-03-17T12:41:59.210Z,18.66
2019-03-17T12:44:33.723Z,18.76
2019-03-17T12:47:07.221Z,18.62
2019-03-17T12:49:40.335Z,18.63
2019-03-17T12:52:13.852Z,18.67
2019-03-17T12:54:47.953Z,18.68
2019-03-17T12:57:21.020Z,18.72
2019-03-17T12:59:54.204Z,18.67
2019-03-17T13:02:27.340Z,18.70
2019-03-17T13:05:00.471Z,18.78
2019-03-17T13:07:34.457Z,18.76
2019-03-17T13:10:15.715Z,18.75
2019-03-17T13:12:43.667Z,18.85
2019-03-17T13:15:16.730Z,18.90
2019-03-17T13:17:49.839Z,18.90
2019-03-17T13:20:22.875Z,18.95
2019-03-17T13:22:55.956Z,18.94
2019-03-17T13:25:29.066Z,18.86
2019-03-17T13:28:02.200Z,18.82
2019-03-17T13:30:35.358Z,18.86
2019-03-17T13:33:08.862Z,18.84
2019-03-17T13:35:41.949Z,18.80
2019-03-17T13:38:16.041Z,18.84
2019-03-17T13:40:49.286Z,18.78
2019-03-17T13:43:22.330Z,18.67
2019-03-17T13:45:55.490Z,18.69
2019-03-17T13:48:28.577Z,18.69
2019-03-17T13:51:02.342Z,18.74
2019-03-17T13:53:35.502Z,18.76
2019-03-17T13:56:08.978Z,18.73
2019-03-17T13:58:42.055Z,18.69
2019-03-17T14:01:15.066Z,18.62
2019-03-17T14:03:47.943Z,18.69
2019-03-17T14:06:20.790Z,18.52
2019-03-17T14:08:54.175Z,18.52
2019-03-17T14:11:27.083Z,18.51
2019-03-17T14:14:00.263Z,18.36
2019-03-17T14:16:36.338Z,18.34
2019-03-17T14:19:11.088Z,18.42
2019-03-17T14:21:44.250Z,18.45
2019-03-17T14:24:17.437Z,18.35
2019-03-17T14:26:50.672Z,18.30
2019-03-17T14:29:24.035Z,18.22
2019-03-17T14:31:57.122Z,18.17
2019-03-17T14:34:30.204Z,18.04
2019-03-17T14:37:03.320Z,17.97
2019-03-17T14:39:36.342Z,17.82
2019-03-17T14:42:09.447Z,17.77
2019-03-17T14:44:42.735Z,17.70
2019-03-17T14:47:15.918Z,17.62
2019-03-17T14:49:48.990Z,17.52
2019-03-17T14:52:22.128Z,17.52
2019-03-17T14:54:55.223Z,17.49
2019-03-17T14:57:28.360Z,17.43
2019-03-17T15:00:01.477Z,17.30
2019-03-17T15:02:34.697Z,17.24
2019-03-17T15:05:08.572Z,17.19
2019-03-17T15:07:41.763Z,17.17
2019-03-17T15:10:16.983Z,17.13
2019-03-17T15:12:51.595Z,17.09
2019-03-17T15:15:24.729Z,17.10
2019-03-17T15:17:57.768Z,17.09
2019-03-17T15:20:31.950Z,17.06
2019-03-17T15:23:05.550Z,17.01
2019-03-17T15:25:39.053Z,16.93
2019-03-17T15:28:23.563Z,16.87
2019-03-17T15:31:10.973Z,16.81
2019-03-17T15:33:37.233Z,16.71
2019-03-17T15:36:11.423Z,16.67
2019-03-17T15:38:47.273Z,16.64
2019-03-17T15:41:26.635Z,16.55
2019-03-17T15:44:05.390Z,16.47
2019-03-17T15:46:39.867Z,16.41
2019-03-17T15:49:14.529Z,16.35
2019-03-17T15:51:48.081Z,16.27
2019-03-17T15:54:21.749Z,16.22
2019-03-17T15:56:55.674Z,16.13
2019-03-17T15:59:28.977Z,16.09
2019-03-17T16:02:03.695Z,16.07
2019-03-17T16:04:37.245Z,16.03
2019-03-17T16:07:10.729Z,15.99
2019-03-17T16:09:44.483Z,15.98
2019-03-17T16:12:17.962Z,15.92
2019-03-17T16:14:51.567Z,15.89
2019-03-17T16:17:25.133Z,15.88
2019-03-17T16:19:58.751Z,15.83
2019-03-17T16:22:32.296Z,15.77
2019-03-17T16:25:07.310Z,15.75
2019-03-17T16:27:40.747Z,15.69
2019-03-17T16:30:20.474Z,15.66
2019-03-17T16:32:57.038Z,15.62
2019-03-17T16:35:30.597Z,15.57
2019-03-17T16:38:04.140Z,15.53
2019-03-17T16:40:43.210Z,15.48
2019-03-17T16:43:20.477Z,15.42
2019-03-17T16:46:20.836Z,15.38
2019-03-17T17:10:07.333Z,14.78
2019-03-17T17:20:17.611Z,14.24
2019-03-17T17:26:36.535Z,13.51
2019-03-17T17:29:10.232Z,12.68
2019-03-17T17:32:00.037Z,12.31
2019-03-17T17:34:33.291Z,12.05
2019-03-17T17:37:06.608Z,11.89
2019-03-17T17:39:39.817Z,11.73
2019-03-17T17:42:29.305Z,11.57
2019-03-17T17:45:10.206Z,11.13
2019-03-17T17:47:44.548Z,10.87
2019-03-17T17:50:18.599Z,10.78
2019-03-17T17:52:51.969Z,10.76
2019-03-17T17:55:25.210Z,10.61
2019-03-17T17:57:58.485Z,10.42
2019-03-17T18:00:35.277Z,10.48
2019-03-17T18:03:09.701Z,10.36
2019-03-17T18:05:43.198Z,10.27
2019-03-17T18:08:16.647Z,10.34
2019-03-17T18:10:50.021Z,10.33
2019-03-17T18:13:23.319Z,10.33
2019-03-17T18:15:56.617Z,10.19
2019-03-17T18:18:29.859Z,10.09
2019-03-17T18:21:03.477Z,9.97
2019-03-17T18:23:36.848Z,9.97
2019-03-17T18:26:10.451Z,10.00
2019-03-17T18:28:43.844Z,9.97
2019-03-17T18:32:58.898Z,9.88
2019-03-17T18:55:20.778Z,9.33
2019-03-17T19:02:38.749Z,9.30
2019-03-17T19:06:34.140Z,9.26
2019-03-17T19:09:35.224Z,9.21
2019-03-17T19:12:12.796Z,9.07
2019-03-17T19:14:46.613Z,9.01
2019-03-17T19:17:22.095Z,8.98
2019-03-17T19:20:02.459Z,8.96
2019-03-17T19:22:36.799Z,8.97
2019-03-17T19:25:18.755Z,8.96
2019-03-17T19:27:52.774Z,8.93
2019-03-17T19:30:27.284Z,8.93
2019-03-17T19:33:01.281Z,8.96
2019-03-17T19:35:35.165Z,8.96
2019-03-17T19:38:09.622Z,8.92
2019-03-17T19:40:45.447Z,8.86
2019-03-17T19:43:19.047Z,8.80
2019-03-17T19:45:52.757Z,8.71
2019-03-17T19:48:27.432Z,8.73
2019-03-17T19:51:01.588Z,8.77
2019-03-17T19:53:35.420Z,8.73
2019-03-17T19:56:08.923Z,8.71
2019-03-17T19:58:43.443Z,8.66
2019-03-17T20:01:19.900Z,8.63
2019-03-17T20:03:54.450Z,8.58
2019-03-17T20:06:28.144Z,8.54
2019-03-17T20:09:02.260Z,8.52
2019-03-17T20:11:36.857Z,8.50
2019-03-17T20:14:10.691Z,8.49
2019-03-17T20:16:44.461Z,8.49
2019-03-17T20:19:17.907Z,8.46
2019-03-17T20:21:51.490Z,8.43
2019-03-17T20:24:25.160Z,8.40
2019-03-17T20:26:58.737Z,8.39
2019-03-17T20:29:32.417Z,8.37
2019-03-17T20:32:06.168Z,8.36
2019-03-17T20:34:40.017Z,8.35
2019-03-17T20:37:13.543Z,8.33
2019-03-17T20:39:47.091Z,8.32
2019-03-17T20:42:21.070Z,8.36
2019-03-17T20:44:55.521Z,8.35
2019-03-17T20:47:29.070Z,8.33
2019-03-17T20:50:02.660Z,8.31
2019-03-17T20:52:36.140Z,8.34
2019-03-17T20:55:09.892Z,8.27
2019-03-17T20:57:43.395Z,8.28
2019-03-17T21:00:17.003Z,8.28
2019-03-17T21:02:50.928Z,8.18
2019-03-17T21:05:24.443Z,8.09
2019-03-17T21:07:58.463Z,8.05
2019-03-17T21:10:32.121Z,8.03
2019-03-17T21:13:09.390Z,7.98
2019-03-17T21:15:42.520Z,7.94
2019-03-17T21:18:15.701Z,7.92
2019-03-17T21:20:48.861Z,7.90
2019-03-17T21:23:22.106Z,7.87
2019-03-17T21:25:55.297Z,7.89
2019-03-17T21:28:28.560Z,7.91
2019-03-17T21:31:01.948Z,7.91
2019-03-17T21:33:35.120Z,7.88
2019-03-17T21:36:08.316Z,7.89
2019-03-17T21:38:41.465Z,7.87
2019-03-17T21:41:14.586Z,7.85
2019-03-17T21:43:58.932Z,7.82
2019-03-17T21:46:22.547Z,7.83
2019-03-17T21:48:57.232Z,7.83
2019-03-17T21:51:30.384Z,7.85
2019-03-17T21:54:03.531Z,7.84
2019-03-17T21:56:36.664Z,7.82
2019-03-17T21:59:09.806Z,7.83
2019-03-17T22:01:42.930Z,7.81
2019-03-17T22:04:16.160Z,7.83
2019-03-17T22:06:49.369Z,7.82
2019-03-17T22:09:22.471Z,7.84
2019-03-17T22:11:56.511Z,7.83
2019-03-17T22:14:29.650Z,7.83
2019-03-17T22:17:02.767Z,7.79
2019-03-17T22:19:35.921Z,7.77
2019-03-17T22:22:09.205Z,7.76
2019-03-17T22:24:42.394Z,7.75
2019-03-17T22:27:15.535Z,7.76
2019-03-17T22:29:49.056Z,7.74
2019-03-17T22:32:22.531Z,7.72
2019-03-17T22:34:55.686Z,7.70
2019-03-17T22:37:28.874Z,7.70
2019-03-17T22:40:02.092Z,7.70
2019-03-17T22:42:35.264Z,7.67
2019-03-17T22:45:09.069Z,7.63
2019-03-17T22:47:42.242Z,7.59
2019-03-17T22:50:15.480Z,7.63
2019-03-17T22:52:48.614Z,7.64
2019-03-17T22:55:21.769Z,7.62
2019-03-17T22:57:54.952Z,7.58
2019-03-17T23:00:44.785Z,7.58
2019-03-17T23:03:19.119Z,7.58
2019-03-17T23:05:52.407Z,7.59
2019-03-17T23:08:25.748Z,7.58
2019-03-17T23:10:59.090Z,7.57
2019-03-17T23:13:32.565Z,7.58
2019-03-17T23:16:05.830Z,7.54
2019-03-17T23:18:39.151Z,7.59
2019-03-17T23:21:12.767Z,7.54
2019-03-17T23:23:46.917Z,7.52
2019-03-17T23:26:20.201Z,7.51
2019-03-17T23:28:53.511Z,7.51
2019-03-17T23:31:26.753Z,7.52
2019-03-17T23:34:00.131Z,7.51
2019-03-17T23:36:33.410Z,7.52
2019-03-17T23:39:07.940Z,7.53
2019-03-17T23:41:41.227Z,7.54
2019-03-17T23:44:14.608Z,7.50
2019-03-17T23:46:47.886Z,7.50
2019-03-17T23:49:21.311Z,7.51
2019-03-17T23:51:55.672Z,7.44
2019-03-17T23:54:29.167Z,7.43
2019-03-17T23:57:02.474Z,7.45
2019-03-17T23:59:36.028Z,7.43
